Time;durP1;ratioP1;P1;durP2;ratioP2;P2;SDS_P1;SDS_P2;PMS_P1;PMS_P2;Temp;Humidity;BMP_temperature;BMP_pressure;BME280_temperature;BME280_humidity;BME280_pressure;Samples;Min_cycle;Max_cycle;Signal;HPM_P1;HPM_P2
2021/06/15 00:01:30;;;;;;;12.85;10.80;;;;;;;18.91;85.99;100402.15;1684888;85;21240;-59
2021/06/15 00:04:36;;;;;;;11.25;10.05;;;;;;;18.92;85.99;100398.28;1685002;85;21239;-59
2021/06/15 00:07:42;;;;;;;16.70;11.50;;;;;;;18.91;85.98;100396.59;1684952;85;21294;-59
2021/06/15 00:10:46;;;;;;;13.30;11.20;;;;;;;18.89;86.01;100394.59;1685064;85;21307;-57
2021/06/15 00:13:36;;;;;;;17.23;12.05;;;;;;;18.87;85.89;100395.34;1685075;85;21243;-58
2021/06/15 00:16:24;;;;;;;21.00;12.13;;;;;;;18.81;85.90;100394.88;1684996;85;21200;-58
2021/06/15 00:19:29;;;;;;;14.15;11.85;;;;;;;18.80;86.10;100400.13;1684970;85;21227;-59
2021/06/15 00:22:34;;;;;;;17.90;11.70;;;;;;;18.79;86.02;100394.25;1684921;85;21216;-58
2021/06/15 00:25:40;;;;;;;17.70;12.50;;;;;;;18.74;85.98;100389.92;1684881;85;21335;-57
2021/06/15 00:28:45;;;;;;;18.50;11.95;;;;;;;18.72;86.13;100392.63;1684905;85;21445;-58
2021/06/15 00:31:51;;;;;;;15.28;12.37;;;;;;;18.70;86.24;100392.86;1686017;82;21757;-58
2021/06/15 00:34:57;;;;;;;16.15;11.78;;;;;;;18.69;86.36;100384.24;1684998;85;21303;-58
2021/06/15 00:38:03;;;;;;;18.02;11.35;;;;;;;18.67;86.28;100389.69;1684913;85;21224;-58
2021/06/15 00:41:09;;;;;;;14.53;12.07;;;;;;;18.62;86.44;100385.36;1684850;85;21235;-58
2021/06/15 00:44:17;;;;;;;15.28;12.47;;;;;;;18.60;86.59;100391.69;1684928;85;21279;-58
2021/06/15 00:47:22;;;;;;;15.15;12.90;;;;;;;18.58;86.69;100390.53;1684981;85;21279;-58
2021/06/15 00:50:30;;;;;;;18.05;14.07;;;;;;;18.54;86.64;100387.89;1684963;85;21797;-58
2021/06/15 00:53:35;;;;;;;21.40;13.68;;;;;;;18.49;86.91;100383.56;1684955;85;21203;-59
2021/06/15 00:56:43;;;;;;;19.27;12.13;;;;;;;18.47;87.13;100387.09;1684899;85;21275;-59
2021/06/15 00:59:48;;;;;;;15.93;12.85;;;;;;;18.47;87.20;100382.10;1685065;85;21279;-59
2021/06/15 01:02:53;;;;;;;27.07;14.55;;;;;;;18.44;87.13;100387.54;1685049;85;21625;-58
2021/06/15 01:05:59;;;;;;;19.90;13.68;;;;;;;18.40;87.24;100393.24;1684994;85;21251;-59
2021/06/15 01:09:11;;;;;;;18.45;12.90;;;;;;;18.36;87.29;100393.89;1685007;85;21259;-58
2021/06/15 01:12:44;;;;;;;17.95;12.37;;;;;;;18.35;87.50;100391.65;1685011;85;21220;-58
2021/06/15 01:16:11;;;;;;;15.88;12.63;;;;;;;18.32;87.42;100378.24;1685088;85;21393;-58
2021/06/15 01:19:35;;;;;;;20.97;13.10;;;;;;;18.29;87.37;100382.86;1685182;85;21327;-58
2021/06/15 01:23:32;;;;;;;18.37;12.82;;;;;;;18.25;87.29;100389.08;1685029;85;21235;-58
2021/06/15 01:27:21;;;;;;;16.93;12.58;;;;;;;18.20;87.31;100395.30;1684892;85;21248;-58
2021/06/15 01:30:30;;;;;;;14.75;12.70;;;;;;;18.15;87.41;100390.97;1684949;85;21275;-59
2021/06/15 01:33:35;;;;;;;15.65;12.43;;;;;;;18.12;87.59;100384.49;1683641;83;21290;-59
2021/06/15 01:36:50;;;;;;;14.40;12.75;;;;;;;18.13;87.75;100386.17;1684943;85;21204;-60
2021/06/15 01:40:14;;;;;;;16.15;13.72;;;;;;;18.15;87.72;100383.18;1684989;84;21259;-58
2021/06/15 01:43:34;;;;;;;14.68;13.18;;;;;;;18.15;87.80;100382.66;1667254;85;21240;-58
2021/06/15 01:46:43;;;;;;;14.58;12.98;;;;;;;18.18;87.70;100382.73;1684940;85;21239;-59
2021/06/15 01:50:04;;;;;;;16.27;13.78;;;;;;;18.15;87.60;100377.11;1684927;85;21290;-58
2021/06/15 01:53:09;;;;;;;17.62;12.90;;;;;;;18.14;87.52;100376.78;1684944;85;21195;-58
2021/06/15 01:56:17;;;;;;;18.57;13.13;;;;;;;18.10;87.41;100376.07;1684935;85;21247;-58
2021/06/15 01:59:27;;;;;;;14.30;12.90;;;;;;;18.07;87.62;100376.00;1684589;85;21227;-59
2021/06/15 02:02:32;;;;;;;20.15;13.78;;;;;;;18.08;87.79;100384.61;1684884;85;21779;-58
2021/06/15 02:05:43;;;;;;;18.40;13.28;;;;;;;18.10;87.87;100389.40;1684971;85;21243;-60
2021/06/15 02:08:54;;;;;;;16.32;13.90;;;;;;;18.10;87.84;100390.78;1684998;85;21212;-58
2021/06/15 02:12:05;;;;;;;15.60;12.73;;;;;;;18.11;87.89;100395.23;1685005;85;21239;-59
2021/06/15 02:15:21;;;;;;;15.83;14.18;;;;;;;18.14;88.01;100393.96;1683279;85;21294;-59
2021/06/15 02:18:50;;;;;;;17.77;13.60;;;;;;;18.16;88.02;100389.88;1628365;87;21219;-58
2021/06/15 02:22:21;;;;;;;14.53;13.10;;;;;;;18.18;87.89;100389.13;1628147;88;21206;-59
2021/06/15 02:25:31;;;;;;;15.28;13.43;;;;;;;18.20;87.75;100386.98;1684951;85;21243;-59
2021/06/15 02:28:37;;;;;;;19.27;13.48;;;;;;;18.20;87.72;100385.61;1685092;85;21208;-59
2021/06/15 02:31:46;;;;;;;20.50;13.30;;;;;;;18.23;87.75;100385.15;1685101;85;21212;-59
2021/06/15 02:34:56;;;;;;;16.17;13.72;;;;;;;18.25;87.67;100385.75;1686066;82;21188;-59
2021/06/15 02:38:12;;;;;;;14.90;12.82;;;;;;;18.30;87.71;100382.33;1685069;85;21248;-59
2021/06/15 02:41:19;;;;;;;15.10;12.63;;;;;;;18.37;87.67;100371.49;1684506;85;21228;-58
2021/06/15 02:44:28;;;;;;;13.85;12.35;;;;;;;18.44;87.40;100377.84;1685085;85;21234;-59
2021/06/15 02:47:36;;;;;;;16.25;12.65;;;;;;;18.50;87.28;100370.55;1672431;84;21319;-58
2021/06/15 02:50:43;;;;;;;16.12;13.08;;;;;;;18.53;86.96;100363.16;1684960;85;21257;-58
2021/06/15 02:54:14;;;;;;;15.35;12.23;;;;;;;18.54;86.79;100362.94;1684780;85;21271;-59
2021/06/15 02:57:21;;;;;;;15.00;12.07;;;;;;;18.56;86.72;100369.11;1683613;85;21216;-59
2021/06/15 03:00:30;;;;;;;14.30;12.82;;;;;;;18.58;86.62;100366.97;1685073;85;21307;-58
2021/06/15 03:03:38;;;;;;;18.37;13.80;;;;;;;18.62;86.49;100368.72;1685216;85;21204;-59
2021/06/15 03:06:45;;;;;;;14.47;12.43;;;;;;;18.65;86.44;100366.88;1685060;85;21227;-58
2021/06/15 03:09:52;;;;;;;17.02;12.63;;;;;;;18.73;86.31;100360.50;1684960;85;21216;-60
2021/06/15 03:13:22;;;;;;;16.32;12.73;;;;;;;18.82;86.25;100365.23;1684999;85;21279;-58
2021/06/15 03:16:33;;;;;;;13.55;12.15;;;;;;;18.90;86.05;100360.77;1684490;85;21642;-59
2021/06/15 03:20:06;;;;;;;14.85;12.18;;;;;;;18.99;85.92;100362.14;1685092;85;21270;-58
2021/06/15 03:23:22;;;;;;;17.02;12.00;;;;;;;19.05;85.61;100359.30;1685156;85;21223;-59
2021/06/15 03:26:33;;;;;;;15.45;12.07;;;;;;;19.14;85.30;100363.45;1684843;85;21235;-59
2021/06/15 03:29:43;;;;;;;12.28;10.75;;;;;;;19.24;85.20;100368.46;1684955;85;21212;-60
2021/06/15 03:32:54;;;;;;;16.67;12.60;;;;;;;19.33;85.01;100367.65;1685054;85;21247;-60
2021/06/15 03:36:03;;;;;;;16.75;11.68;;;;;;;19.39;84.60;100372.27;1683345;85;21320;-57
2021/06/15 03:39:08;;;;;;;17.27;11.45;;;;;;;19.47;84.37;100372.80;1685087;85;21259;-58
2021/06/15 03:42:19;;;;;;;13.65;11.08;;;;;;;19.56;84.10;100377.48;1684891;85;21203;-58
2021/06/15 03:45:24;;;;;;;13.72;10.78;;;;;;;19.64;83.85;100375.77;1685009;85;21264;-58
2021/06/15 03:48:30;;;;;;;12.75;11.43;;;;;;;19.74;83.62;100373.28;1685009;85;21219;-57
2021/06/15 03:51:40;;;;;;;13.88;11.85;;;;;;;19.81;83.01;100371.24;1685232;85;21792;-58
2021/06/15 03:54:47;;;;;;;15.68;11.00;;;;;;;19.87;82.58;100368.93;1685068;85;21295;-58
2021/06/15 03:57:56;;;;;;;14.15;10.30;;;;;;;19.97;82.61;100369.19;1666541;85;21736;-58
2021/06/15 04:01:04;;;;;;;12.63;10.35;;;;;;;20.07;82.33;100366.16;1666663;85;21238;-59
2021/06/15 04:04:17;;;;;;;12.03;10.72;;;;;;;20.16;82.13;100363.89;1684975;85;21592;-58
2021/06/15 04:07:24;;;;;;;12.65;10.28;;;;;;;20.27;81.88;100367.23;1684894;85;21251;-59
2021/06/15 04:10:33;;;;;;;12.53;10.53;;;;;;;20.36;81.27;100372.21;1685016;85;21262;-60
2021/06/15 04:13:40;;;;;;;13.68;10.48;;;;;;;20.48;80.92;100372.23;1684636;85;21296;-58
2021/06/15 04:16:47;;;;;;;13.10;10.45;;;;;;;20.58;80.55;100372.50;1684474;85;21211;-59
2021/06/15 04:19:55;;;;;;;11.57;9.98;;;;;;;20.68;80.36;100372.72;1685043;85;21270;-59
2021/06/15 04:23:05;;;;;;;11.93;9.10;;;;;;;20.79;80.15;100380.22;1684683;85;21267;-58
2021/06/15 04:26:08;;;;;;;11.43;9.23;;;;;;;20.90;79.76;100377.16;1684916;85;21239;-57
2021/06/15 04:29:16;;;;;;;11.90;9.80;;;;;;;20.99;79.33;100378.50;1684748;85;21954;-60
2021/06/15 04:32:25;;;;;;;14.90;9.90;;;;;;;21.10;78.87;100375.71;1666580;85;21263;-59
2021/06/15 04:35:44;;;;;;;11.55;9.33;;;;;;;21.21;78.65;100377.62;1685037;83;21244;-60
2021/06/15 04:38:56;;;;;;;14.45;8.80;;;;;;;21.34;78.07;100374.58;1686627;84;21640;-59
2021/06/15 04:42:09;;;;;;;10.35;8.33;;;;;;;21.46;78.04;100380.95;1712446;84;21353;-58
2021/06/15 04:45:15;;;;;;;;;;;;;;;21.58;77.15;100387.89;1715468;84;21856;-59
2021/06/15 04:48:27;;;;;;;12.80;8.80;;;;;;;21.67;76.39;100385.86;1711661;83;20289;-59
2021/06/15 04:51:33;;;;;;;9.45;8.05;;;;;;;21.74;75.75;100385.15;1684563;85;21235;-60
2021/06/15 04:54:43;;;;;;;10.03;7.78;;;;;;;21.84;75.47;100381.75;1684602;85;21271;-59
2021/06/15 04:57:51;;;;;;;17.00;7.97;;;;;;;21.92;74.71;100378.03;1684648;85;21259;-56
2021/06/15 05:00:59;;;;;;;14.55;8.10;;;;;;;21.99;74.41;100374.52;1684675;85;21860;-59
2021/06/15 05:04:06;;;;;;;10.40;7.58;;;;;;;22.10;74.59;100368.60;1680642;83;21374;-60
2021/06/15 05:07:13;;;;;;;11.85;7.28;;;;;;;22.20;74.12;100364.04;1683449;85;21236;-57
2021/06/15 05:10:23;;;;;;;9.55;6.72;;;;;;;22.31;73.62;100365.63;1684450;85;21299;-58
2021/06/15 05:13:30;;;;;;;6.65;5.97;;;;;;;22.38;73.00;100371.87;1684346;85;21299;-57
2021/06/15 05:16:40;;;;;;;9.78;7.37;;;;;;;22.46;72.72;100363.08;1683999;85;21287;-56
2021/06/15 05:19:48;;;;;;;11.75;6.62;;;;;;;22.53;72.70;100357.69;1684472;85;21633;-58
2021/06/15 05:23:08;;;;;;;14.23;5.90;;;;;;;22.62;72.13;100360.88;1699181;83;21348;-56
2021/06/15 05:26:16;;;;;;;13.53;6.42;;;;;;;22.71;71.97;100370.50;1676884;85;21243;-57
2021/06/15 05:29:22;;;;;;;10.50;6.70;;;;;;;22.81;72.06;100368.73;1659651;85;21386;-57
2021/06/15 05:32:29;;;;;;;10.10;6.20;;;;;;;22.88;71.03;100371.34;1676888;85;21907;-58
2021/06/15 05:35:35;;;;;;;8.90;6.50;;;;;;;22.95;71.20;100359.43;1689002;84;22058;-55
2021/06/15 05:38:43;;;;;;;9.70;6.08;;;;;;;23.05;70.76;100365.17;1695385;83;21219;-57
2021/06/15 05:41:48;;;;;;;8.00;6.37;;;;;;;23.14;71.01;100360.82;1715648;83;21190;-56
2021/06/15 05:44:55;;;;;;;7.97;6.30;;;;;;;23.22;71.34;100350.60;1715060;83;21273;-55
2021/06/15 05:48:02;;;;;;;8.00;5.58;;;;;;;23.32;71.11;100352.17;1715147;83;21191;-56
2021/06/15 05:51:12;;;;;;;8.30;5.95;;;;;;;23.41;70.66;100354.80;1716349;83;21246;-58
2021/06/15 05:54:19;;;;;;;11.60;7.45;;;;;;;23.49;70.18;100347.36;1693564;83;21600;-58
2021/06/15 05:57:26;;;;;;;8.68;5.85;;;;;;;23.52;69.55;100345.44;1706491;83;21263;-56
2021/06/15 06:00:33;;;;;;;9.05;5.35;;;;;;;23.57;69.17;100344.95;1704728;83;21202;-55
2021/06/15 06:03:43;;;;;;;9.35;5.10;;;;;;;23.64;68.85;100348.95;1716292;83;21195;-55
2021/06/15 06:10:07;;;;;;;8.65;4.85;;;;;;;23.82;67.79;100337.39;1710325;83;21394;-57
2021/06/15 06:13:15;;;;;;;7.80;5.03;;;;;;;23.92;67.63;100341.70;1705004;83;21208;-56
2021/06/15 06:16:20;;;;;;;10.65;4.85;;;;;;;24.01;67.13;100333.70;1693152;83;21220;-58
2021/06/15 06:19:26;;;;;;;11.15;4.75;;;;;;;24.08;67.39;100335.20;1685397;85;21460;-58
2021/06/15 06:22:34;;;;;;;7.78;4.65;;;;;;;24.17;66.69;100332.19;1687574;84;21728;-57
2021/06/15 06:25:43;;;;;;;10.08;4.87;;;;;;;24.22;66.51;100337.84;1686999;85;21473;-58
2021/06/15 06:28:48;;;;;;;9.78;4.53;;;;;;;24.31;66.74;100336.23;1687616;85;21227;-58
2021/06/15 06:31:54;;;;;;;6.37;4.40;;;;;;;24.40;66.17;100336.05;1688033;85;21389;-55
2021/06/15 06:35:02;;;;;;;6.75;4.33;;;;;;;24.45;64.58;100335.25;1689203;83;21314;-59
2021/06/15 06:38:07;;;;;;;10.72;4.80;;;;;;;24.47;64.24;100338.05;1682927;84;21469;-56
2021/06/15 06:41:13;;;;;;;4.67;4.05;;;;;;;24.54;64.34;100327.48;1667365;85;21400;-57
2021/06/15 06:44:21;;;;;;;7.30;4.42;;;;;;;24.61;64.03;100339.28;1663310;85;21377;-57
2021/06/15 06:47:28;;;;;;;8.53;4.65;;;;;;;24.67;63.08;100339.63;1670740;85;21229;-57
2021/06/15 06:50:33;;;;;;;7.05;4.28;;;;;;;24.73;62.77;100334.93;1648281;86;21788;-57
2021/06/15 06:53:38;;;;;;;11.18;4.30;;;;;;;24.77;62.59;100338.31;1647698;86;21200;-57
2021/06/15 06:56:46;;;;;;;9.85;4.35;;;;;;;24.85;62.09;100334.16;1647721;86;21248;-57
2021/06/15 06:59:52;;;;;;;9.70;4.17;;;;;;;24.89;62.01;100331.13;1648282;85;21256;-56
2021/06/15 07:02:56;;;;;;;5.78;3.90;;;;;;;24.95;61.86;100332.28;1655411;85;21378;-58
2021/06/15 07:06:03;;;;;;;5.60;4.00;;;;;;;24.99;61.04;100333.41;1695473;84;21231;-57
2021/06/15 07:09:13;;;;;;;11.90;4.33;;;;;;;25.01;61.54;100339.59;1667775;85;21591;-57
2021/06/15 07:12:48;;;;;;;8.45;4.72;;;;;;;25.08;60.22;100330.95;1683701;84;21749;-58
2021/06/15 07:15:54;;;;;;;5.53;4.03;;;;;;;25.15;60.01;100331.53;1664870;85;21377;-60
2021/06/15 07:19:00;;;;;;;8.65;4.08;;;;;;;25.22;59.74;100330.75;1663174;85;21232;-57
2021/06/15 07:22:07;;;;;;;6.35;4.05;;;;;;;25.26;59.81;100338.87;1649064;87;21321;-58
2021/06/15 07:25:15;;;;;;;5.50;4.37;;;;;;;25.30;60.35;100322.36;1650793;85;21271;-57
2021/06/15 07:28:22;;;;;;;7.90;4.22;;;;;;;25.37;60.02;100318.80;1661618;85;21765;-58
2021/06/15 07:31:29;;;;;;;8.35;4.72;;;;;;;25.47;59.17;100337.04;1664433;85;21259;-58
2021/06/15 07:34:34;;;;;;;5.87;4.42;;;;;;;25.53;58.88;100320.55;1654799;85;21746;-57
2021/06/15 07:37:41;;;;;;;8.73;5.08;;;;;;;25.57;58.34;100318.86;1651234;85;21228;-58
2021/06/15 07:40:46;;;;;;;14.68;5.10;;;;;;;25.62;58.10;100324.49;1690465;83;21232;-57
2021/06/15 07:43:54;;;;;;;9.73;4.22;;;;;;;25.66;57.63;100320.86;1705561;84;21304;-56
2021/06/15 07:47:01;;;;;;;9.88;4.37;;;;;;;25.72;57.31;100323.13;1699532;84;21241;-58
2021/06/15 07:50:09;;;;;;;7.37;4.40;;;;;;;25.77;57.56;100316.11;1680125;85;21845;-60
2021/06/15 07:53:18;;;;;;;7.50;4.50;;;;;;;25.84;57.96;100318.10;1690027;84;21202;-56
2021/06/15 07:56:23;;;;;;;7.33;4.33;;;;;;;25.89;57.76;100312.51;1685945;84;21616;-57
2021/06/15 07:59:32;;;;;;;8.65;4.62;;;;;;;25.93;56.97;100306.61;1684047;84;21241;-56
2021/06/15 08:02:37;;;;;;;6.60;4.22;;;;;;;25.97;57.27;100306.35;1695403;84;21830;-57
2021/06/15 08:05:46;;;;;;;10.88;4.83;;;;;;;26.03;56.83;100297.70;1697870;83;21676;-58
2021/06/15 08:08:53;;;;;;;6.08;4.40;;;;;;;26.10;57.57;100296.02;1664275;85;21158;-56
2021/06/15 08:12:02;;;;;;;7.55;4.47;;;;;;;26.17;56.82;100296.57;1692854;84;21206;-57
2021/06/15 08:15:08;;;;;;;9.88;4.30;;;;;;;26.21;56.51;100301.34;1672389;85;21724;-58
2021/06/15 08:18:13;;;;;;;8.15;3.80;;;;;;;26.31;57.08;100296.29;1697781;84;21842;-57
2021/06/15 08:21:20;;;;;;;14.03;4.00;;;;;;;26.40;56.52;100296.84;1700238;83;21205;-58
2021/06/15 08:24:27;;;;;;;8.05;3.87;;;;;;;26.45;55.83;100291.23;1705646;84;21218;-55
2021/06/15 08:27:37;;;;;;;6.20;4.03;;;;;;;26.53;55.80;100291.22;1688781;84;21659;-58
2021/06/15 08:30:42;;;;;;;9.90;4.00;;;;;;;26.63;56.05;100281.94;1682265;85;21580;-56
2021/06/15 08:33:48;;;;;;;7.22;4.12;;;;;;;26.72;55.75;100290.12;1684999;83;21265;-55
2021/06/15 08:36:56;;;;;;;7.20;4.40;;;;;;;26.78;54.68;100287.58;1706908;84;21198;-56
2021/06/15 08:40:04;;;;;;;6.42;4.65;;;;;;;26.81;53.96;100283.64;1696111;84;21241;-56
2021/06/15 08:43:13;;;;;;;8.80;4.28;;;;;;;26.81;54.00;100286.45;1663352;86;21243;-55
2021/06/15 08:46:20;;;;;;;9.70;4.22;;;;;;;26.83;54.49;100285.58;1663517;86;21441;-54
2021/06/15 08:49:26;;;;;;;7.17;4.03;;;;;;;26.87;53.95;100278.84;1664318;85;21447;-55
2021/06/15 08:52:33;;;;;;;6.80;4.00;;;;;;;26.92;53.87;100271.80;1664230;84;21474;-56
2021/06/15 08:55:42;;;;;;;6.35;3.85;;;;;;;26.99;53.75;100266.16;1651182;86;21416;-55
2021/06/15 08:58:57;;;;;;;7.62;4.12;;;;;;;27.14;54.49;100277.36;1656380;84;21250;-54
2021/06/15 09:02:14;;;;;;;10.65;3.87;;;;;;;27.25;53.97;100281.81;1662400;86;21811;-54
2021/06/15 09:05:29;;;;;;;5.22;3.80;;;;;;;27.37;53.27;100269.69;1666365;84;21966;-56
2021/06/15 09:08:35;;;;;;;7.75;4.10;;;;;;;27.44;53.24;100259.53;1675795;84;21196;-57
2021/06/15 09:12:03;;;;;;;6.05;3.40;;;;;;;27.46;53.03;100256.69;1689168;84;21324;-57
2021/06/15 09:15:09;;;;;;;7.42;3.92;;;;;;;27.47;52.42;100264.58;1690661;85;21807;-55
2021/06/15 09:18:14;;;;;;;6.40;3.58;;;;;;;27.51;52.20;100259.48;1680193;84;21207;-55
2021/06/15 09:21:19;;;;;;;6.33;3.87;;;;;;;27.64;53.07;100260.25;1690960;84;21267;-56
2021/06/15 09:24:29;;;;;;;7.55;3.85;;;;;;;27.78;52.04;100248.62;1691062;85;21207;-56
2021/06/15 09:27:38;;;;;;;5.85;3.65;;;;;;;27.88;53.20;100244.08;1691582;85;21357;-55
2021/06/15 09:30:46;;;;;;;6.42;2.80;;;;;;;27.85;51.13;100242.67;1691922;84;21239;-56
2021/06/15 09:33:53;;;;;;;3.98;2.98;;;;;;;27.84;49.43;100243.23;1673811;84;21941;-54
2021/06/15 09:37:00;;;;;;;6.00;3.30;;;;;;;27.94;50.48;100248.56;1663715;85;21354;-55
2021/06/15 09:40:07;;;;;;;6.25;3.55;;;;;;;27.86;50.50;100254.19;1673336;85;21354;-53
2021/06/15 09:43:20;;;;;;;9.95;3.83;;;;;;;27.75;51.03;100258.20;1690293;84;21457;-53
2021/06/15 09:46:27;;;;;;;10.00;4.20;;;;;;;27.65;52.35;100245.05;1691189;83;21251;-53
2021/06/15 09:49:50;;;;;;;17.32;6.95;;;;;;;27.53;53.17;100245.13;1691337;83;21453;-54
2021/06/15 09:52:58;;;;;;;8.15;4.15;;;;;;;27.39;57.17;100246.34;1686652;85;21313;-53
2021/06/15 09:56:06;;;;;;;19.25;14.13;;;;;;;27.17;58.07;100243.05;1691096;84;21235;-56
2021/06/15 09:59:12;;;;;;;10.95;6.80;;;;;;;26.99;58.78;100250.70;1690615;84;21259;-55
2021/06/15 10:02:17;;;;;;;10.95;4.90;;;;;;;26.88;59.66;100241.20;1691174;84;21219;-54
2021/06/15 10:05:45;;;;;;;8.25;5.37;;;;;;;26.86;59.09;100232.21;1690228;84;21220;-52
2021/06/15 10:08:52;;;;;;;29.27;24.63;;;;;;;26.89;59.19;100228.83;1690979;84;21227;-54
2021/06/15 10:12:06;;;;;;;9.43;5.22;;;;;;;26.94;57.96;100224.59;1689528;85;21208;-55
2021/06/15 10:15:12;;;;;;;9.30;4.00;;;;;;;26.97;58.22;100217.84;1691363;84;21416;-55
2021/06/15 10:18:17;;;;;;;8.80;3.95;;;;;;;26.99;59.18;100221.19;1689694;85;21200;-53
2021/06/15 10:21:24;;;;;;;9.05;3.85;;;;;;;27.03;59.13;100224.27;1683271;85;21227;-53
2021/06/15 10:24:30;;;;;;;7.22;3.50;;;;;;;27.08;57.80;100221.45;1690703;84;21255;-53
2021/06/15 10:27:36;;;;;;;11.10;4.58;;;;;;;27.12;57.25;100226.20;1691634;84;21389;-53
2021/06/15 10:30:47;;;;;;;10.93;4.28;;;;;;;27.20;57.04;100222.79;1690836;84;21235;-55
2021/06/15 10:33:56;;;;;;;;;;;;;;;27.31;57.02;100228.67;1693235;84;21255;-52
2021/06/15 10:37:03;;;;;;;9.78;3.15;;;;;;;27.51;55.98;100239.80;1690647;84;20216;-53
2021/06/15 10:40:22;;;;;;;12.05;3.75;;;;;;;27.66;54.91;100248.71;1691348;84;21275;-52
2021/06/15 10:43:38;;;;;;;4.22;3.00;;;;;;;27.78;54.20;100238.78;1685132;83;21239;-53
2021/06/15 10:46:51;;;;;;;7.30;2.80;;;;;;;27.75;53.47;100234.29;1682764;84;21959;-51
2021/06/15 10:50:07;;;;;;;5.28;2.92;;;;;;;27.52;52.29;100218.99;1697640;84;21282;-55
2021/06/15 10:53:14;;;;;;;9.13;4.42;;;;;;;27.32;52.53;100211.24;1685038;85;21243;-54
2021/06/15 10:56:30;;;;;;;7.75;4.40;;;;;;;27.14;52.80;100207.09;1640851;86;21215;-54
2021/06/15 10:59:33;;;;;;;6.47;3.20;;;;;;;26.93;52.43;100218.12;1667155;86;21213;-54
2021/06/15 11:02:39;;;;;;;7.10;3.35;;;;;;;26.73;53.04;100214.00;1665101;85;21194;-54
2021/06/15 11:06:04;;;;;;;9.50;3.58;;;;;;;26.57;53.21;100205.30;1662713;86;21618;-54
2021/06/15 11:09:22;;;;;;;4.80;2.75;;;;;;;26.43;53.95;100198.59;1654971;85;21786;-53
2021/06/15 11:12:28;;;;;;;7.45;2.65;;;;;;;26.28;54.57;100187.38;1651004;87;21252;-54
2021/06/15 11:15:35;;;;;;;6.35;2.55;;;;;;;26.18;54.97;100183.17;1662612;86;21242;-54
2021/06/15 11:18:43;;;;;;;16.55;3.42;;;;;;;26.10;55.23;100190.79;1673636;85;21251;-53
2021/06/15 11:22:05;;;;;;;9.43;3.15;;;;;;;25.90;53.79;100192.14;1677173;85;21714;-53
2021/06/15 11:25:10;;;;;;;5.80;3.15;;;;;;;25.72;54.00;100184.31;1683275;85;21247;-54
2021/06/15 11:28:47;;;;;;;9.13;3.15;;;;;;;25.59;55.78;100190.45;1698438;84;21466;-54
2021/06/15 11:31:54;;;;;;;9.05;3.67;;;;;;;25.53;56.94;100190.17;1685735;85;21216;-54
2021/06/15 11:35:08;;;;;;;6.80;3.83;;;;;;;25.42;57.14;100187.08;1698406;84;21788;-53
2021/06/15 11:38:21;;;;;;;6.70;3.70;;;;;;;25.38;57.45;100180.32;1691433;85;21232;-52
2021/06/15 11:41:25;;;;;;;6.50;4.17;;;;;;;25.41;56.98;100178.36;1680385;85;21235;-53
2021/06/15 11:44:58;;;;;;;8.28;4.17;;;;;;;25.46;57.11;100175.57;1690989;83;21282;-54
2021/06/15 11:48:34;;;;;;;8.65;3.65;;;;;;;25.50;56.69;100170.53;1641205;85;21252;-54
2021/06/15 11:51:40;;;;;;;8.73;3.55;;;;;;;25.61;56.41;100168.59;1689597;83;21250;-54
2021/06/15 11:54:45;;;;;;;10.82;3.80;;;;;;;25.77;56.70;100157.09;1687907;84;21239;-53
2021/06/15 11:57:50;;;;;;;14.13;4.10;;;;;;;25.95;56.00;100154.28;1681216;85;21720;-54
2021/06/15 12:01:04;;;;;;;13.38;3.83;;;;;;;26.17;56.04;100150.62;1665392;84;21629;-54
2021/06/15 12:04:09;;;;;;;10.63;3.85;;;;;;;26.44;56.62;100146.37;1697723;84;21353;-54
2021/06/15 12:07:23;;;;;;;10.55;4.20;;;;;;;26.74;56.32;100142.63;1661840;85;21197;-54
2021/06/15 12:10:30;;;;;;;13.50;4.60;;;;;;;27.02;55.91;100141.92;1684497;85;21243;-56
2021/06/15 12:13:38;;;;;;;13.45;4.60;;;;;;;27.38;56.79;100142.03;1693886;84;21195;-54
2021/06/15 12:16:44;;;;;;;10.40;3.77;;;;;;;27.70;56.29;100124.63;1688974;84;21266;-54
2021/06/15 12:19:49;;;;;;;6.60;3.10;;;;;;;28.01;57.02;100116.77;1683599;84;21331;-55
2021/06/15 12:22:54;;;;;;;6.75;3.33;;;;;;;28.28;55.99;100115.63;1663240;85;21413;-54
2021/06/15 12:26:02;;;;;;;5.28;3.35;;;;;;;28.53;55.20;100115.37;1668793;85;21227;-54
2021/06/15 12:29:12;;;;;;;8.40;3.20;;;;;;;28.70;53.30;100122.78;1690583;84;21283;-55
2021/06/15 12:32:19;;;;;;;3.33;2.20;;;;;;;28.90;51.52;100119.69;1692964;84;21295;-56
2021/06/15 12:35:26;;;;;;;6.60;2.30;;;;;;;28.99;48.23;100127.73;1688555;84;21239;-55
2021/06/15 12:38:31;;;;;;;5.25;2.70;;;;;;;29.09;47.42;100130.45;1663087;85;21327;-54
2021/06/15 12:41:36;;;;;;;5.30;2.42;;;;;;;29.32;48.14;100136.58;1669245;85;21340;-54
2021/06/15 12:44:44;;;;;;;6.37;2.70;;;;;;;29.56;48.65;100138.75;1689172;83;21282;-55
2021/06/15 12:47:54;;;;;;;5.55;2.77;;;;;;;29.77;48.81;100129.41;1663051;85;21381;-54
2021/06/15 12:51:18;;;;;;;5.70;2.60;;;;;;;30.11;47.31;100125.12;1663873;85;21302;-53
2021/06/15 12:54:40;;;;;;;6.10;2.65;;;;;;;30.24;46.27;100129.17;1637486;87;21262;-54
2021/06/15 12:57:43;;;;;;;6.83;2.75;;;;;;;30.24;46.27;100129.17;1635956;87;21227;-56
2021/06/15 13:00:52;;;;;;;7.35;3.08;;;;;;;30.38;45.79;100118.13;1636083;87;21302;-55
2021/06/15 13:04:00;;;;;;;4.60;3.08;;;;;;;30.42;43.56;100118.35;1635716;87;21749;-55
2021/06/15 13:07:04;;;;;;;8.60;2.83;;;;;;;30.18;44.59;100107.20;1635889;87;21215;-54
2021/06/15 13:10:28;;;;;;;4.20;2.70;;;;;;;30.13;44.90;100105.88;1651964;86;21725;-54
2021/06/15 13:13:33;;;;;;;4.78;3.02;;;;;;;29.89;45.20;100119.31;1634157;87;21242;-54
2021/06/15 13:16:49;;;;;;;7.92;3.12;;;;;;;29.46;47.83;100109.31;1660576;85;21319;-54
2021/06/15 13:20:04;;;;;;;3.87;2.95;;;;;;;29.06;48.62;100105.66;1650348;86;21305;-54
2021/06/15 13:23:13;;;;;;;5.08;3.20;;;;;;;28.81;49.09;100093.33;1675259;83;21654;-54
2021/06/15 13:26:28;;;;;;;3.37;2.77;;;;;;;28.76;50.65;100090.58;1643034;86;21311;-54
2021/06/15 13:29:37;;;;;;;7.85;3.47;;;;;;;28.75;50.52;100076.20;1658785;84;21231;-54
2021/06/15 13:32:46;;;;;;;6.08;3.05;;;;;;;28.61;50.09;100075.27;1674649;85;21714;-55
2021/06/15 13:35:59;;;;;;;7.22;3.12;;;;;;;28.29;50.54;100070.28;1646711;86;21254;-54
2021/06/15 13:39:24;;;;;;;7.35;3.37;;;;;;;27.91;51.81;100076.07;1670886;85;21237;-54
2021/06/15 13:42:34;;;;;;;6.50;3.58;;;;;;;27.68;52.51;100071.48;1660167;86;21291;-55
2021/06/15 13:45:45;;;;;;;6.10;3.72;;;;;;;27.55;52.57;100073.55;1661005;84;21184;-53
2021/06/15 13:48:52;;;;;;;6.60;3.58;;;;;;;27.38;53.51;100052.05;1694146;83;21210;-53
2021/06/15 13:51:59;;;;;;;4.22;3.47;;;;;;;27.17;54.88;100046.84;1710388;83;21258;-55
2021/06/15 13:55:03;;;;;;;8.18;3.60;;;;;;;27.08;55.77;100050.00;1686654;83;21243;-54
2021/06/15 13:58:11;;;;;;;8.20;3.10;;;;;;;27.02;56.22;100034.31;1708333;83;21212;-55
2021/06/15 14:01:17;;;;;;;4.10;2.87;;;;;;;27.09;54.93;100024.41;1705506;83;21441;-55
2021/06/15 14:04:25;;;;;;;6.90;3.15;;;;;;;27.11;52.98;100022.16;1699997;84;21804;-55
2021/06/15 14:07:35;;;;;;;8.50;3.37;;;;;;;27.17;51.94;100032.22;1711038;82;21203;-56
2021/06/15 14:10:40;;;;;;;10.32;3.20;;;;;;;27.26;52.13;100038.04;1707733;83;21212;-56
2021/06/15 14:13:46;;;;;;;6.62;3.10;;;;;;;27.43;52.22;100042.14;1708383;83;21274;-56
2021/06/15 14:16:55;;;;;;;5.97;3.50;;;;;;;27.54;52.11;100042.91;1708586;83;21853;-57
2021/06/15 14:20:00;;;;;;;8.30;3.27;;;;;;;27.59;51.84;100044.28;1708492;83;21772;-56
2021/06/15 14:23:07;;;;;;;7.70;4.28;;;;;;;27.60;52.32;100036.09;1708595;83;21352;-57
2021/06/15 14:26:13;;;;;;;7.55;3.80;;;;;;;27.58;53.41;100034.99;1708508;83;21438;-57
2021/06/15 14:29:18;;;;;;;10.35;3.72;;;;;;;27.58;54.05;100044.84;1708236;83;21402;-57
2021/06/15 14:32:24;;;;;;;9.05;3.67;;;;;;;27.59;54.24;100046.50;1708608;83;21216;-57
2021/06/15 14:35:32;;;;;;;12.55;4.58;;;;;;;27.55;54.45;100041.21;1708205;83;21251;-58
2021/06/15 14:38:37;;;;;;;14.33;4.03;;;;;;;27.42;54.83;100043.28;1708200;83;21242;-58